createdAt,value
2023-05-15T00:01:44.538Z,49.60
2023-05-15T00:04:13.052Z,49.80
2023-05-15T00:06:41.366Z,49.80
2023-05-15T00:09:11.833Z,50.10
2023-05-15T00:11:40.001Z,49.70
2023-05-15T00:14:08.352Z,49.50
2023-05-15T00:16:36.985Z,49.80
2023-05-15T00:19:05.208Z,50.00
2023-05-15T00:21:33.486Z,49.80
2023-05-15T00:24:01.682Z,49.90
2023-05-15T00:26:31.423Z,50.20
2023-05-15T00:31:30.939Z,50.20
2023-05-15T00:34:00.128Z,50.60
2023-05-15T00:36:28.425Z,50.90
2023-05-15T00:38:56.593Z,50.90
2023-05-15T00:41:28.568Z,50.90
2023-05-15T00:44:00.405Z,51.40
2023-05-15T00:46:31.148Z,51.40
2023-05-15T00:49:00.113Z,51.40
2023-05-15T00:51:28.744Z,51.50
2023-05-15T00:53:57.097Z,51.00
2023-05-15T00:56:26.204Z,51.20
2023-05-15T00:58:59.731Z,51.50
2023-05-15T01:01:28.908Z,51.40
2023-05-15T01:03:57.167Z,51.50
2023-05-15T01:06:25.388Z,51.40
2023-05-15T01:08:56.912Z,51.10
2023-05-15T01:11:35.756Z,51.80
2023-05-15T01:14:08.746Z,51.70
2023-05-15T01:16:37.499Z,51.70
2023-05-15T01:19:06.528Z,51.70
2023-05-15T01:22:14.529Z,51.50
2023-05-15T01:25:26.644Z,51.60
2023-05-15T01:27:59.820Z,51.50
2023-05-15T01:30:31.513Z,51.40
2023-05-15T01:33:06.524Z,51.30
2023-05-15T01:35:39.230Z,51.30
2023-05-15T01:38:15.453Z,51.30
2023-05-15T01:40:46.755Z,51.20
2023-05-15T01:43:22.978Z,51.60
2023-05-15T01:45:51.162Z,51.60
2023-05-15T01:48:21.090Z,50.70
2023-05-15T01:50:51.471Z,50.70
2023-05-15T01:53:21.502Z,50.70
2023-05-15T01:55:50.627Z,50.70
2023-05-15T01:58:20.983Z,50.70
2023-05-15T02:00:50.625Z,50.70
2023-05-15T02:03:19.642Z,50.80
2023-05-15T02:05:48.428Z,50.70
2023-05-15T02:08:17.467Z,50.80
2023-05-15T02:10:46.173Z,50.70
2023-05-15T02:13:15.714Z,51.40
2023-05-15T02:15:45.246Z,50.70
2023-05-15T02:18:15.392Z,50.60
2023-05-15T02:20:43.577Z,50.70
2023-05-15T02:23:12.125Z,50.90
2023-05-15T02:25:46.316Z,50.80
2023-05-15T02:28:23.449Z,51.00
2023-05-15T02:30:59.124Z,51.10
2023-05-15T02:33:36.502Z,51.00
2023-05-15T02:36:08.296Z,51.00
2023-05-15T02:38:42.088Z,51.00
2023-05-15T02:41:11.739Z,50.90
2023-05-15T02:43:41.936Z,50.80
2023-05-15T02:46:14.820Z,50.70
2023-05-15T02:48:44.473Z,50.50
2023-05-15T02:51:15.390Z,50.70
2023-05-15T02:53:44.422Z,50.80
2023-05-15T02:56:12.560Z,50.90
2023-05-15T02:58:41.225Z,50.80
2023-05-15T03:01:09.469Z,51.00
2023-05-15T03:03:39.097Z,50.90
2023-05-15T03:06:07.559Z,51.00
2023-05-15T03:08:35.793Z,50.90
2023-05-15T03:11:04.036Z,50.80
2023-05-15T03:13:32.157Z,50.80
2023-05-15T03:16:00.385Z,51.30
2023-05-15T03:18:28.691Z,50.70
2023-05-15T03:20:58.289Z,50.70
2023-05-15T03:23:26.446Z,50.80
2023-05-15T03:25:54.681Z,50.70
2023-05-15T03:28:22.849Z,50.70
2023-05-15T03:30:51.021Z,50.70
2023-05-15T03:33:19.202Z,50.60
2023-05-15T03:35:47.425Z,50.60
2023-05-15T03:38:17.740Z,50.50
2023-05-15T03:40:46.085Z,50.50
2023-05-15T03:43:14.333Z,50.50
2023-05-15T03:45:42.488Z,50.20
2023-05-15T03:48:10.749Z,50.30
2023-05-15T03:50:39.229Z,50.30
2023-05-15T03:53:10.467Z,50.10
2023-05-15T03:55:40.098Z,50.30
2023-05-15T03:58:10.410Z,50.10
2023-05-15T04:00:38.549Z,50.10
2023-05-15T04:03:06.836Z,50.20
2023-05-15T04:05:35.085Z,50.30
2023-05-15T04:08:03.315Z,50.30
2023-05-15T04:10:32.362Z,50.30
2023-05-15T04:13:02.222Z,50.20
2023-05-15T04:15:30.495Z,50.10
2023-05-15T04:17:58.722Z,50.20
2023-05-15T04:20:30.048Z,50.10
2023-05-15T04:22:58.199Z,50.10
2023-05-15T04:25:28.201Z,50.10
2023-05-15T04:27:57.099Z,50.20
2023-05-15T04:30:29.328Z,50.00
2023-05-15T04:32:57.592Z,49.90
2023-05-15T04:35:28.151Z,50.00
2023-05-15T04:37:56.577Z,50.00
2023-05-15T04:40:24.898Z,50.10
2023-05-15T04:42:53.043Z,50.30
2023-05-15T04:45:21.408Z,50.30
2023-05-15T04:47:51.201Z,50.30
2023-05-15T04:50:19.485Z,51.00
2023-05-15T04:52:50.391Z,50.80
2023-05-15T04:55:18.539Z,50.80
2023-05-15T04:57:47.907Z,50.40
2023-05-15T05:00:17.106Z,50.70
2023-05-15T05:02:45.366Z,50.90
2023-05-15T05:05:17.983Z,50.60
2023-05-15T05:07:46.319Z,51.00
2023-05-15T05:10:14.509Z,50.70
2023-05-15T05:12:42.647Z,50.60
2023-05-15T05:15:11.588Z,50.30
2023-05-15T05:17:39.831Z,50.40
2023-05-15T05:20:12.960Z,50.20
2023-05-15T05:22:43.040Z,50.60
2023-05-15T05:25:11.502Z,50.40
2023-05-15T05:27:39.672Z,50.30
2023-05-15T05:30:09.060Z,50.50
2023-05-15T05:32:37.268Z,50.70
2023-05-15T05:35:06.454Z,50.30
2023-05-15T05:37:34.611Z,50.10
2023-05-15T05:40:06.596Z,50.30
2023-05-15T05:42:34.770Z,50.20
2023-05-15T05:45:03.034Z,50.10
2023-05-15T05:47:31.245Z,50.10
2023-05-15T05:49:59.420Z,50.00
2023-05-15T05:52:30.256Z,49.70
2023-05-15T05:54:58.408Z,49.70
2023-05-15T05:57:27.937Z,49.80
2023-05-15T05:59:56.097Z,50.00
2023-05-15T06:02:24.434Z,49.80
2023-05-15T06:04:53.298Z,49.60
2023-05-15T06:07:21.671Z,49.70
2023-05-15T06:09:49.805Z,50.10
2023-05-15T06:12:18.727Z,50.10
2023-05-15T06:14:49.122Z,50.10
2023-05-15T06:17:17.314Z,50.00
2023-05-15T06:19:45.530Z,50.30
2023-05-15T06:22:13.655Z,50.20
2023-05-15T06:24:42.227Z,50.10
2023-05-15T06:27:10.372Z,50.10
2023-05-15T06:29:38.478Z,50.10
2023-05-15T06:32:08.756Z,50.70
2023-05-15T06:34:39.966Z,50.30
2023-05-15T06:37:08.252Z,50.50
2023-05-15T06:39:36.556Z,50.30
2023-05-15T06:42:05.103Z,49.80
2023-05-15T06:44:33.314Z,49.50
2023-05-15T06:47:01.642Z,49.10
2023-05-15T06:49:31.276Z,49.40
2023-05-15T06:51:59.581Z,49.30
2023-05-15T06:54:27.794Z,49.60
2023-05-15T06:56:56.579Z,49.40
2023-05-15T06:59:24.768Z,49.40
2023-05-15T07:01:53.080Z,49.70
2023-05-15T07:04:21.296Z,48.80
2023-05-15T07:06:50.856Z,49.20
2023-05-15T07:09:19.014Z,49.60
2023-05-15T07:11:47.157Z,49.30
2023-05-15T07:14:15.383Z,48.60
2023-05-15T07:16:43.515Z,48.50
2023-05-15T07:19:11.863Z,49.10
2023-05-15T07:21:40.444Z,49.40
2023-05-15T07:24:10.134Z,49.60
2023-05-15T07:26:46.939Z,49.90
2023-05-15T07:29:18.693Z,49.00
2023-05-15T07:31:48.900Z,49.20
2023-05-15T07:34:20.069Z,49.50
2023-05-15T07:36:50.687Z,49.50
2023-05-15T07:39:20.225Z,48.50
2023-05-15T07:41:48.484Z,48.70
2023-05-15T07:44:16.786Z,47.10
2023-05-15T07:46:45.590Z,47.30
2023-05-15T07:49:13.947Z,47.10
2023-05-15T07:51:42.669Z,47.40
2023-05-15T07:54:10.888Z,47.40
2023-05-15T07:56:41.394Z,47.70
2023-05-15T07:59:09.718Z,47.70
2023-05-15T08:01:37.895Z,47.30
2023-05-15T08:04:08.837Z,47.00
2023-05-15T08:06:38.489Z,47.50
2023-05-15T08:09:07.008Z,47.10
2023-05-15T08:11:35.228Z,47.30
2023-05-15T08:14:04.757Z,46.70
2023-05-15T08:16:33.058Z,46.80
2023-05-15T08:19:04.868Z,46.40
2023-05-15T08:21:33.369Z,46.80
2023-05-15T08:24:02.027Z,47.20
2023-05-15T08:26:30.182Z,46.50
2023-05-15T08:28:58.385Z,47.50
2023-05-15T08:31:30.262Z,47.00
2023-05-15T08:33:58.465Z,46.10
2023-05-15T08:36:28.011Z,47.00
2023-05-15T08:38:56.274Z,47.70
2023-05-15T08:41:40.700Z,47.60
2023-05-15T08:44:10.977Z,47.40
2023-05-15T08:46:41.304Z,47.00
2023-05-15T08:49:16.094Z,46.80
2023-05-15T08:51:44.512Z,46.70
2023-05-15T08:54:13.051Z,46.50
2023-05-15T08:56:41.497Z,47.70
2023-05-15T08:59:09.653Z,47.30
2023-05-15T09:01:38.860Z,48.50
2023-05-15T09:04:10.769Z,47.60
2023-05-15T09:06:39.786Z,49.00
2023-05-15T09:09:13.417Z,47.50
2023-05-15T09:11:46.117Z,47.60
2023-05-15T09:14:14.488Z,47.60
2023-05-15T09:16:42.513Z,47.20
2023-05-15T09:19:12.248Z,46.60
2023-05-15T09:21:40.206Z,46.10
2023-05-15T09:24:18.710Z,46.00
2023-05-15T09:27:11.284Z,47.00
2023-05-15T09:29:40.497Z,47.20
2023-05-15T09:32:10.283Z,47.10
2023-05-15T09:34:42.922Z,47.40
2023-05-15T09:37:28.112Z,46.70
2023-05-15T09:39:56.785Z,47.00
2023-05-15T09:42:25.983Z,46.90
2023-05-15T09:44:54.152Z,46.20
2023-05-15T09:47:22.438Z,46.40
2023-05-15T09:49:52.774Z,46.20
2023-05-15T09:52:23.186Z,47.00
2023-05-15T09:54:51.555Z,47.90
2023-05-15T09:57:23.383Z,47.10
2023-05-15T09:59:52.026Z,47.20
2023-05-15T10:02:32.400Z,47.90
2023-05-15T10:05:02.392Z,48.20
2023-05-15T10:07:31.367Z,47.50
2023-05-15T10:09:59.699Z,47.50
2023-05-15T10:12:29.288Z,47.00
2023-05-15T10:14:59.458Z,47.20
2023-05-15T10:17:30.129Z,47.00
2023-05-15T10:20:00.860Z,47.90
2023-05-15T10:22:31.702Z,47.40
2023-05-15T10:25:04.747Z,47.60
2023-05-15T10:27:36.271Z,47.00
2023-05-15T10:30:07.694Z,47.50
2023-05-15T10:32:37.695Z,47.00
2023-05-15T10:35:07.868Z,47.00
2023-05-15T10:37:37.634Z,47.20
2023-05-15T10:40:09.911Z,47.20
2023-05-15T10:42:39.310Z,47.10
2023-05-15T10:45:09.992Z,47.20
2023-05-15T10:47:38.737Z,46.80
2023-05-15T10:50:08.073Z,47.20
2023-05-15T10:52:39.191Z,47.40
2023-05-15T10:55:09.481Z,47.50
2023-05-15T10:57:38.224Z,48.70
2023-05-15T11:00:26.254Z,47.30
2023-05-15T11:02:57.146Z,47.60
2023-05-15T11:05:26.143Z,48.30
2023-05-15T11:08:29.729Z,48.80
2023-05-15T11:10:58.077Z,49.20
2023-05-15T11:13:27.417Z,49.00
2023-05-15T11:15:57.215Z,48.10
2023-05-15T11:18:26.723Z,47.80
2023-05-15T11:21:10.774Z,47.00
2023-05-15T11:23:43.196Z,47.80
2023-05-15T11:26:14.614Z,47.90
2023-05-15T11:28:49.359Z,46.70
2023-05-15T11:31:17.653Z,47.10
2023-05-15T11:33:52.378Z,46.90
2023-05-15T11:36:25.299Z,47.30
2023-05-15T11:38:57.837Z,46.80
2023-05-15T11:41:32.933Z,46.70
2023-05-15T11:44:01.134Z,46.10
2023-05-15T11:46:29.475Z,45.60
2023-05-15T11:48:59.476Z,47.10
2023-05-15T11:51:31.660Z,47.40
2023-05-15T11:54:03.440Z,47.70
2023-05-15T11:56:31.626Z,47.50
2023-05-15T11:59:01.113Z,46.50
2023-05-15T12:01:31.100Z,47.10
2023-05-15T12:03:59.427Z,46.20
2023-05-15T12:06:27.759Z,46.70
2023-05-15T12:08:56.364Z,46.00
2023-05-15T12:11:28.217Z,46.40
2023-05-15T12:13:58.050Z,47.10
2023-05-15T12:16:27.097Z,46.60
2023-05-15T12:18:57.535Z,46.00
2023-05-15T12:21:27.667Z,45.90
2023-05-15T12:24:06.986Z,46.10
2023-05-15T12:26:39.333Z,45.80
2023-05-15T12:29:08.044Z,46.00
2023-05-15T12:31:38.415Z,46.30
2023-05-15T12:34:07.104Z,45.60
2023-05-15T12:36:35.358Z,44.90
2023-05-15T12:39:07.873Z,45.70
2023-05-15T12:41:38.281Z,44.70
2023-05-15T12:44:08.232Z,43.50
2023-05-15T12:46:36.436Z,43.90
2023-05-15T12:49:04.678Z,43.10
2023-05-15T12:51:32.828Z,43.60
2023-05-15T12:54:00.999Z,43.90
2023-05-15T12:56:31.009Z,44.10
2023-05-15T12:59:01.052Z,46.60
2023-05-15T13:01:30.264Z,45.30
2023-05-15T13:03:59.413Z,45.10
2023-05-15T13:06:44.910Z,46.10
2023-05-15T13:09:14.306Z,44.60
2023-05-15T13:11:45.033Z,44.50
2023-05-15T13:14:17.492Z,45.60
2023-05-15T13:16:47.530Z,45.70
2023-05-15T13:19:17.338Z,46.70
2023-05-15T13:21:46.002Z,46.00
2023-05-15T13:24:14.303Z,47.20
2023-05-15T13:26:42.675Z,45.40
2023-05-15T13:29:10.888Z,45.80
2023-05-15T13:31:40.544Z,44.40
2023-05-15T13:34:09.114Z,43.00
2023-05-15T13:36:38.316Z,43.80
2023-05-15T13:39:06.540Z,44.00
2023-05-15T13:41:34.739Z,44.10
2023-05-15T13:44:02.890Z,44.70
2023-05-15T13:46:31.427Z,44.60
2023-05-15T13:49:01.001Z,44.40
2023-05-15T13:51:29.196Z,43.90
2023-05-15T13:53:57.370Z,44.40
2023-05-15T13:56:25.802Z,44.80
2023-05-15T13:58:53.985Z,44.30
2023-05-15T14:01:22.364Z,44.90
2023-05-15T14:03:50.578Z,45.20
2023-05-15T14:06:20.086Z,45.90
2023-05-15T14:08:48.480Z,46.50
2023-05-15T14:11:16.655Z,46.20
2023-05-15T14:13:44.870Z,46.70
2023-05-15T14:16:14.073Z,46.20
2023-05-15T14:18:42.337Z,46.20
2023-05-15T14:21:10.561Z,47.10
2023-05-15T14:23:40.086Z,48.30
2023-05-15T14:26:08.410Z,50.00
2023-05-15T14:28:36.602Z,49.90
2023-05-15T14:31:04.747Z,51.50
2023-05-15T14:33:32.912Z,50.30
2023-05-15T14:36:01.559Z,49.30
2023-05-15T14:38:29.688Z,50.10
2023-05-15T14:40:59.240Z,48.70
2023-05-15T14:43:27.407Z,49.40
2023-05-15T14:45:55.816Z,49.80
2023-05-15T14:48:24.031Z,49.30
2023-05-15T14:50:52.486Z,49.90
2023-05-15T14:53:20.680Z,49.70
2023-05-15T14:55:48.961Z,49.90
2023-05-15T14:58:18.514Z,51.00
2023-05-15T15:00:48.400Z,49.70
2023-05-15T15:03:16.683Z,50.10
2023-05-15T15:05:45.087Z,49.60
2023-05-15T15:08:13.274Z,49.40
2023-05-15T15:10:43.387Z,49.70
2023-05-15T15:13:13.588Z,50.90
2023-05-15T15:15:43.127Z,49.10
2023-05-15T15:18:11.419Z,48.50
2023-05-15T15:20:39.693Z,48.20
2023-05-15T15:23:10.735Z,48.40
2023-05-15T15:25:38.948Z,49.20
2023-05-15T15:28:07.107Z,49.20
2023-05-15T15:30:35.256Z,49.10
2023-05-15T15:33:05.108Z,49.70
2023-05-15T15:35:33.278Z,46.10
2023-05-15T15:38:01.421Z,46.80
2023-05-15T15:40:30.392Z,48.10
2023-05-15T15:42:58.559Z,47.00
2023-05-15T15:45:26.843Z,46.90
2023-05-15T15:47:55.038Z,46.50
2023-05-15T15:50:24.738Z,46.50
2023-05-15T15:52:52.995Z,47.00
2023-05-15T15:55:21.217Z,48.30
2023-05-15T15:57:49.350Z,47.90
2023-05-15T16:00:18.105Z,48.10
2023-05-15T16:02:46.435Z,47.70
2023-05-15T16:05:15.112Z,47.70
2023-05-15T16:07:44.656Z,48.30
2023-05-15T16:10:13.551Z,47.70
2023-05-15T16:12:42.749Z,47.80
2023-05-15T16:17:43.168Z,47.70
2023-05-15T16:20:11.986Z,47.60
2023-05-15T16:22:41.723Z,47.50
2023-05-15T16:25:11.531Z,48.70
2023-05-15T16:27:39.728Z,46.80
2023-05-15T16:30:09.224Z,47.20
2023-05-15T16:32:37.482Z,46.10
2023-05-15T16:35:06.603Z,46.70
2023-05-15T16:37:34.963Z,46.60
2023-05-15T16:40:03.880Z,47.50
2023-05-15T16:42:38.793Z,47.50
2023-05-15T16:45:11.320Z,47.30
2023-05-15T16:47:41.133Z,47.90
2023-05-15T16:50:10.095Z,47.80
2023-05-15T16:52:45.107Z,46.30
2023-05-15T16:55:15.471Z,44.80
2023-05-15T16:57:45.588Z,45.40
2023-05-15T17:00:15.353Z,45.10
2023-05-15T17:02:43.864Z,45.60
2023-05-15T17:05:13.915Z,45.40
2023-05-15T17:07:43.124Z,45.00
2023-05-15T17:10:14.709Z,44.80
2023-05-15T17:12:44.330Z,45.40
2023-05-15T17:15:12.981Z,45.10
2023-05-15T17:17:41.247Z,45.20
2023-05-15T17:20:10.488Z,45.00
2023-05-15T17:22:38.770Z,45.20
2023-05-15T17:25:08.286Z,45.20
2023-05-15T17:27:39.673Z,45.20
2023-05-15T17:30:10.750Z,45.50
2023-05-15T17:32:43.162Z,46.50
2023-05-15T17:35:12.706Z,46.30
2023-05-15T17:37:41.421Z,45.80
2023-05-15T17:40:10.794Z,46.50
2023-05-15T17:42:39.028Z,46.80
2023-05-15T17:45:09.770Z,46.50
2023-05-15T17:47:37.978Z,46.30
2023-05-15T17:50:09.146Z,46.40
2023-05-15T17:52:37.967Z,46.70
2023-05-15T17:55:07.168Z,46.90
2023-05-15T17:57:35.305Z,47.20
2023-05-15T18:00:04.248Z,47.20
2023-05-15T18:02:41.780Z,47.70
2023-05-15T18:05:10.333Z,47.30
2023-05-15T18:07:38.491Z,47.70
2023-05-15T18:10:10.968Z,47.70
2023-05-15T18:12:39.136Z,47.90
2023-05-15T18:15:08.252Z,47.30
2023-05-15T18:17:36.458Z,47.40
2023-05-15T18:20:07.343Z,47.30
2023-05-15T18:22:35.505Z,46.60
2023-05-15T18:25:03.711Z,46.40
2023-05-15T18:27:31.866Z,46.40
2023-05-15T18:30:00.027Z,46.90
2023-05-15T18:32:28.214Z,47.40
2023-05-15T18:34:56.343Z,47.30
2023-05-15T18:37:27.423Z,46.90
2023-05-15T18:39:58.875Z,46.20
2023-05-15T18:42:27.245Z,46.90
2023-05-15T18:44:57.821Z,47.20
2023-05-15T18:47:26.160Z,46.40
2023-05-15T18:49:54.343Z,46.70
2023-05-15T18:52:23.511Z,47.30
2023-05-15T18:54:54.109Z,45.90
2023-05-15T18:57:22.270Z,46.30
2023-05-15T18:59:50.441Z,46.20
2023-05-15T19:02:18.946Z,47.20
2023-05-15T19:04:48.368Z,46.50
2023-05-15T19:07:17.200Z,47.00
2023-05-15T19:09:45.526Z,46.10
2023-05-15T19:12:15.039Z,46.50
2023-05-15T19:14:43.513Z,45.90
2023-05-15T19:17:12.706Z,45.70
2023-05-15T19:19:41.181Z,45.60
2023-05-15T19:22:09.340Z,45.50
2023-05-15T19:24:37.616Z,45.40
2023-05-15T19:27:06.361Z,44.80
2023-05-15T19:29:35.896Z,45.70
2023-05-15T19:32:04.130Z,46.90
2023-05-15T19:34:32.376Z,46.20
2023-05-15T19:37:00.826Z,45.80
2023-05-15T19:39:33.552Z,45.50
2023-05-15T19:42:01.827Z,45.80
2023-05-15T19:44:30.124Z,45.50
2023-05-15T19:47:03.344Z,46.10
2023-05-15T19:49:31.540Z,46.50
2023-05-15T19:51:59.662Z,46.00
2023-05-15T19:54:28.054Z,46.00
2023-05-15T19:56:58.462Z,46.90
2023-05-15T19:59:26.592Z,48.40
2023-05-15T20:01:54.751Z,47.80
2023-05-15T20:04:24.368Z,47.40
2023-05-15T20:06:52.935Z,46.80
2023-05-15T20:09:21.133Z,46.60
2023-05-15T20:11:49.360Z,46.80
2023-05-15T20:14:18.068Z,46.60
2023-05-15T20:16:46.360Z,46.40
2023-05-15T20:19:14.632Z,46.40
2023-05-15T20:21:44.261Z,46.40
2023-05-15T20:24:12.520Z,46.40
2023-05-15T20:26:40.696Z,46.20
2023-05-15T20:29:11.977Z,46.20
2023-05-15T20:31:40.648Z,46.30
2023-05-15T20:34:08.994Z,46.40
2023-05-15T20:36:38.749Z,46.40
2023-05-15T20:39:08.563Z,46.90
2023-05-15T20:41:37.523Z,46.60
2023-05-15T20:44:05.756Z,46.80
2023-05-15T20:46:34.001Z,47.20
2023-05-15T20:49:02.188Z,46.80
2023-05-15T20:51:30.944Z,47.10
2023-05-15T20:53:59.110Z,46.60
2023-05-15T20:56:28.603Z,46.70
2023-05-15T20:58:59.026Z,46.90
2023-05-15T21:01:30.692Z,47.70
2023-05-15T21:03:58.964Z,47.30
2023-05-15T21:06:29.168Z,47.20
2023-05-15T21:08:57.469Z,47.30
2023-05-15T21:11:25.915Z,47.60
2023-05-15T21:13:55.808Z,47.60
2023-05-15T21:16:24.272Z,48.10
2023-05-15T21:18:52.814Z,48.10
2023-05-15T21:21:21.302Z,48.30
2023-05-15T21:23:49.474Z,48.30
2023-05-15T21:26:17.683Z,48.30
2023-05-15T21:28:46.097Z,47.90
2023-05-15T21:31:15.672Z,48.50
2023-05-15T21:33:44.387Z,48.50
2023-05-15T21:36:13.018Z,48.40
2023-05-15T21:38:41.172Z,48.70
2023-05-15T21:41:09.397Z,48.30
2023-05-15T21:43:37.550Z,49.20
2023-05-15T21:46:05.933Z,49.30
2023-05-15T21:48:36.275Z,49.10
2023-05-15T21:51:04.586Z,49.60
2023-05-15T21:53:32.764Z,49.30
2023-05-15T21:56:01.081Z,49.40
2023-05-15T21:58:29.734Z,49.10
2023-05-15T22:00:57.897Z,49.00
2023-05-15T22:03:26.242Z,48.90
2023-05-15T22:05:56.406Z,49.10
2023-05-15T22:08:24.572Z,49.10
2023-05-15T22:10:55.142Z,49.00
2023-05-15T22:13:23.487Z,48.90
2023-05-15T22:15:51.653Z,48.90
2023-05-15T22:18:19.852Z,49.20
2023-05-15T22:20:49.068Z,49.30
2023-05-15T22:23:18.639Z,49.30
2023-05-15T22:25:48.913Z,49.60
2023-05-15T22:28:17.259Z,49.10
2023-05-15T22:30:45.428Z,49.00
2023-05-15T22:33:13.936Z,48.70
2023-05-15T22:35:43.402Z,48.50
2023-05-15T22:38:11.620Z,48.30
2023-05-15T22:40:41.194Z,48.40
2023-05-15T22:43:09.298Z,48.20
2023-05-15T22:45:37.759Z,48.10
2023-05-15T22:48:06.898Z,47.90
2023-05-15T22:50:35.090Z,47.80
2023-05-15T22:53:03.470Z,48.00
2023-05-15T22:55:31.599Z,48.20
2023-05-15T22:58:01.109Z,48.30
2023-05-15T23:00:30.190Z,48.00
2023-05-15T23:02:58.918Z,48.00
2023-05-15T23:05:27.661Z,47.80
2023-05-15T23:07:55.876Z,49.30
2023-05-15T23:10:24.150Z,48.00
2023-05-15T23:12:52.347Z,47.90
2023-05-15T23:15:21.961Z,48.20
2023-05-15T23:17:50.208Z,47.60
2023-05-15T23:20:18.635Z,47.50
2023-05-15T23:22:46.848Z,47.30
2023-05-15T23:25:16.267Z,47.40
2023-05-15T23:27:44.430Z,47.40
2023-05-15T23:30:13.230Z,47.00
2023-05-15T23:32:42.739Z,47.20
2023-05-15T23:35:11.199Z,47.10
2023-05-15T23:37:39.356Z,47.40
2023-05-15T23:40:08.572Z,47.10
2023-05-15T23:42:36.914Z,47.30
2023-05-15T23:45:05.860Z,47.20
2023-05-15T23:47:34.050Z,46.80
2023-05-15T23:50:03.695Z,47.70
2023-05-15T23:52:31.862Z,47.10
2023-05-15T23:55:00.195Z,48.10
2023-05-15T23:57:28.334Z,47.30
2023-05-15T23:59:56.469Z,47.30
